Airfield :
LOGIN :

Register | Disclaimer

   EN    FR    IT 

 










Legend :    VFR   Marginal VFR   IFR   Intensive IFR   Very Intensive IFR
Visi :
Ceiling :
>= 8 km
>= 3000ft
5 to 8 km
1000 to 3000 ft
1500m to 5 km
500 to 1000 ft
800 to 1500m
200 to 500 ft
< 800m
< 200 ft
Symbols :   Thunderstorms  Fog  Heavy snow  Heavy precipitations  Wind > 20 kt
SIGMETs :     Misc.  Thunderstorms  Icing  Turbulence  Mountain Waves  Volcanic Ashes







- Airport Elevation : 622 ft
- IATA code : BRS
- Download approach charts


EGGD - Bristol Int.

CURRENT METAR :
  • 202350Z AUTO 04010KT 5000 -DZ OVC006 02/02 Q1005

EXPIRED METARs :
  • 202320Z AUTO 04009KT 6000 -RA BKN007 OVC012 03/02 Q1005
  • 202250Z AUTO 04011KT 9999 OVC011 03/02 Q1005
  • 202220Z AUTO 05011KT 9999 BKN011 OVC016 03/03 Q1005
  • 202150Z AUTO 05011KT 8000 -RA BKN011 OVC016 03/02 Q1005
  • 202120Z AUTO 06012KT 9999 BKN011 OVC026 03/02 Q1005

TAF TAF EGGD
Valid from the 21 at 00:00 until the 22 at 00:00 UTC


202259Z 2100/2124 05008KT 9999 SCT006 BKN010
TEMPO 2100/2106 4000 RASN BR BKN003
TEMPO 2106/2108 4000 BR BKN003
BECMG 2107/2110 13012KT
TEMPO 2108/2118 7000 SHRA SCT012 BKN020
PROB30
TEMPO 2109/2116 3000 +SHRA
ATIS : +44 1275 473 666
No reported NOTAMs for that airfield.
1 SIGMET reported for the London FIR (EGTT) :
 
Severe mountain waves
EGTT SIGMET 04 VALID 202100/210100 EGRR
EGTT LONDON FIR SEV MTW FCST WI N5355 W00132 - N5232 W00304 - N5221 W00530 - N5500 W00530 - N5500 W00159 - N5355 W00132 FL030/120 MOV N 05KT NC=



MET'MAP, your aeronautical weather chart ! - Copyright ORBIFLY December 2007 - Disclaimer

ORBIFLY MET'MAP TEAM :

Programming & Development : Alexandra Zaïnal
Concept & Development : Baudouin d'Aumeries
Co-Development & Prog : Marc-Olivier Méhu
Technical & hardware support : Manuel Goepfert

Contact : metmap@orbifly.com




SOURCES & CREDITS :

   NOAA